Time;durP1;ratioP1;P1;durP2;ratioP2;P2;SDS_P1;SDS_P2;PMS_P1;PMS_P2;Temp;Humidity;BMP_temperature;BMP_pressure;BME280_temperature;BME280_humidity;BME280_pressure;Samples;Min_cycle;Max_cycle;Signal;HPM_P1;HPM_P2
2024/03/17 00:01:41;;;;;;;12.13;3.07;;;;;;;;;;4997092;28;20231;-85
2024/03/17 00:04:09;;;;;;;13.17;3.20;;;;;;;;;;5015345;28;20332;-86
2024/03/17 00:06:37;;;;;;;12.07;2.67;;;;;;;;;;5011814;28;20316;-86
2024/03/17 00:09:09;;;;;;;9.70;2.50;;;;;;;;;;5010546;28;20251;-87
2024/03/17 00:11:35;;;;;;;13.30;2.80;;;;;;;;;;4999720;28;20319;-86
2024/03/17 00:14:01;;;;;;;15.23;3.00;;;;;;;;;;4995568;28;20233;-86
2024/03/17 00:16:30;;;;;;;10.23;2.50;;;;;;;;;;4994955;28;20244;-85
2024/03/17 00:18:58;;;;;;;10.30;2.40;;;;;;;;;;5014249;28;20249;-86
2024/03/17 00:21:26;;;;;;;12.43;2.60;;;;;;;;;;5013612;28;20275;-86
2024/03/17 00:23:51;;;;;;;6.67;2.33;;;;;;;;;;5017165;28;20661;-85
2024/03/17 00:26:20;;;;;;;7.30;2.00;;;;;;;;;;5000583;28;20219;-86
2024/03/17 00:28:50;;;;;;;10.63;2.73;;;;;;;;;;4994459;28;20247;-87
2024/03/17 00:31:18;;;;;;;10.73;2.40;;;;;;;;;;5005308;28;20216;-87
2024/03/17 00:33:52;;;;;;;9.50;2.33;;;;;;;;;;4988493;28;20872;-87
2024/03/17 00:36:18;;;;;;;14.47;2.80;;;;;;;;;;4973787;28;20641;-86
2024/03/17 00:38:43;;;;;;;10.97;2.47;;;;;;;;;;5016062;28;20266;-85
2024/03/17 00:41:09;;;;;;;8.20;2.07;;;;;;;;;;4998720;28;20228;-85
2024/03/17 00:43:34;;;;;;;10.67;2.40;;;;;;;;;;5008431;28;20271;-86
2024/03/17 00:46:06;;;;;;;9.90;2.03;;;;;;;;;;4989776;28;20298;-85
2024/03/17 00:48:32;;;;;;;11.23;2.47;;;;;;;;;;5012287;28;20250;-85
2024/03/17 00:51:00;;;;;;;9.93;2.70;;;;;;;;;;4995078;28;20236;-88
2024/03/17 00:53:28;;;;;;;11.20;2.27;;;;;;;;;;4985170;28;20673;-88
2024/03/17 00:56:01;;;;;;;13.80;2.60;;;;;;;;;;4988387;28;20244;-86
2024/03/17 00:58:26;;;;;;;9.63;2.27;;;;;;;;;;4997502;28;20301;-86
2024/03/17 01:00:52;;;;;;;14.10;2.67;;;;;;;;;;5005021;28;20739;-88
2024/03/17 01:03:20;;;;;;;11.67;2.43;;;;;;;;;;5006569;28;20288;-88
2024/03/17 01:05:52;;;;;;;13.63;2.30;;;;;;;;;;4995314;28;20240;-84
2024/03/17 01:08:17;;;;;;;11.07;2.43;;;;;;;;;;5021531;28;20718;-85
2024/03/17 01:10:44;;;;;;;8.50;2.40;;;;;;;;;;4967462;28;20229;-86
2024/03/17 01:13:12;;;;;;;9.37;2.30;;;;;;;;;;4981989;28;20247;-87
2024/03/17 01:15:41;;;;;;;12.73;2.70;;;;;;;;;;4977215;28;20237;-86
2024/03/17 01:18:07;;;;;;;10.63;2.70;;;;;;;;;;4990390;28;20270;-86
2024/03/17 01:20:35;;;;;;;13.77;2.60;;;;;;;;;;4991797;28;20227;-86
2024/03/17 01:23:01;;;;;;;9.70;2.73;;;;;;;;;;5000505;28;20236;-86
2024/03/17 01:25:27;;;;;;;10.93;2.93;;;;;;;;;;4977805;28;20713;-85
2024/03/17 01:27:53;;;;;;;9.43;2.80;;;;;;;;;;4960676;28;20290;-87
2024/03/17 01:30:24;;;;;;;10.83;3.17;;;;;;;;;;4972931;28;20304;-85
2024/03/17 01:32:52;;;;;;;9.50;2.43;;;;;;;;;;4983986;28;20224;-86
2024/03/17 01:35:18;;;;;;;11.57;2.80;;;;;;;;;;4961652;28;20224;-87
2024/03/17 01:37:43;;;;;;;11.73;2.57;;;;;;;;;;4992529;28;20220;-86
2024/03/17 01:40:10;;;;;;;8.73;2.40;;;;;;;;;;4974548;28;20225;-86
2024/03/17 01:42:41;;;;;;;13.67;3.00;;;;;;;;;;4997102;28;20224;-86
2024/03/17 01:45:31;;;;;;;12.27;2.83;;;;;;;;;;4978248;28;20670;-85
2024/03/17 01:47:57;;;;;;;12.80;3.07;;;;;;;;;;4994385;28;20225;-88
2024/03/17 01:50:24;;;;;;;14.63;3.20;;;;;;;;;;4976423;28;21634;-85
2024/03/17 01:52:53;;;;;;;14.60;3.70;;;;;;;;;;4994382;28;20312;-86
2024/03/17 01:55:22;;;;;;;11.67;3.87;;;;;;;;;;4983182;28;20355;-86
2024/03/17 01:57:49;;;;;;;18.27;4.27;;;;;;;;;;4983473;28;20221;-85
2024/03/17 02:00:17;;;;;;;13.47;4.00;;;;;;;;;;4982037;28;20272;-84
2024/03/17 02:02:48;;;;;;;10.93;4.00;;;;;;;;;;4994332;28;20303;-84
2024/03/17 02:05:18;;;;;;;11.53;3.60;;;;;;;;;;4994471;28;20253;-85
2024/03/17 02:07:48;;;;;;;16.10;3.97;;;;;;;;;;5006044;28;20228;-85
2024/03/17 02:10:14;;;;;;;15.63;3.40;;;;;;;;;;5010887;28;20355;-85
2024/03/17 02:12:40;;;;;;;15.70;4.63;;;;;;;;;;4990207;28;20244;-85
2024/03/17 02:15:06;;;;;;;14.37;4.10;;;;;;;;;;4975227;28;20648;-85
2024/03/17 02:17:37;;;;;;;12.10;3.90;;;;;;;;;;4994351;28;20219;-86
2024/03/17 02:20:07;;;;;;;14.20;4.23;;;;;;;;;;4987157;28;20247;-85
2024/03/17 02:22:36;;;;;;;13.40;4.30;;;;;;;;;;4991712;28;20431;-87
2024/03/17 02:25:07;;;;;;;17.60;4.50;;;;;;;;;;4979322;28;20233;-87
2024/03/17 02:27:34;;;;;;;21.50;4.13;;;;;;;;;;4978159;28;20640;-86
2024/03/17 02:29:59;;;;;;;11.27;3.97;;;;;;;;;;4972867;28;20230;-86
2024/03/17 02:32:27;;;;;;;11.03;3.73;;;;;;;;;;4989365;28;20580;-85
2024/03/17 02:34:53;;;;;;;13.70;3.57;;;;;;;;;;4997462;28;20282;-84
2024/03/17 02:37:20;;;;;;;10.90;4.20;;;;;;;;;;4995371;28;20216;-85
2024/03/17 02:39:46;;;;;;;12.33;4.00;;;;;;;;;;4996116;28;20216;-86
2024/03/17 02:42:11;;;;;;;13.53;3.60;;;;;;;;;;4991239;28;20238;-85
2024/03/17 02:44:40;;;;;;;12.47;4.27;;;;;;;;;;4990871;28;20240;-85
2024/03/17 02:47:14;;;;;;;16.83;4.40;;;;;;;;;;4994008;28;21072;-86
2024/03/17 02:49:49;;;;;;;12.70;3.80;;;;;;;;;;4991569;28;20274;-87
2024/03/17 02:52:15;;;;;;;13.20;3.90;;;;;;;;;;4996136;28;20279;-86
2024/03/17 02:54:41;;;;;;;17.77;4.00;;;;;;;;;;5010489;28;20234;-85
2024/03/17 02:57:06;;;;;;;15.63;4.10;;;;;;;;;;4990870;28;20229;-86
2024/03/17 02:59:32;;;;;;;11.50;4.17;;;;;;;;;;4971370;28;20270;-86
2024/03/17 03:02:00;;;;;;;11.83;3.50;;;;;;;;;;4997841;28;20236;-86
2024/03/17 03:04:29;;;;;;;15.73;4.30;;;;;;;;;;5010979;28;20230;-87
2024/03/17 03:06:57;;;;;;;12.00;3.83;;;;;;;;;;4995761;28;20228;-86
2024/03/17 03:09:31;;;;;;;12.33;4.23;;;;;;;;;;4984207;28;20217;-85
2024/03/17 03:12:01;;;;;;;15.47;4.13;;;;;;;;;;5008904;28;20275;-85
2024/03/17 03:14:29;;;;;;;14.40;4.53;;;;;;;;;;4996616;28;20220;-84
2024/03/17 03:16:57;;;;;;;15.80;4.37;;;;;;;;;;4976459;28;21023;-83
2024/03/17 03:19:22;;;;;;;11.43;3.70;;;;;;;;;;5000418;28;20222;-85
2024/03/17 03:21:48;;;;;;;14.20;4.07;;;;;;;;;;4975304;28;20235;-86
2024/03/17 03:24:17;;;;;;;13.67;3.90;;;;;;;;;;4988899;28;20228;-84
2024/03/17 03:26:43;;;;;;;12.10;4.03;;;;;;;;;;4992862;28;20220;-86
2024/03/17 03:29:14;;;;;;;12.67;4.10;;;;;;;;;;4989213;28;20248;-86
2024/03/17 03:31:40;;;;;;;11.73;3.93;;;;;;;;;;5006802;28;20685;-85
2024/03/17 03:34:10;;;;;;;11.67;4.20;;;;;;;;;;5005370;28;20316;-86
2024/03/17 03:36:41;;;;;;;11.20;3.57;;;;;;;;;;5001995;28;20578;-87
2024/03/17 03:39:11;;;;;;;10.83;3.93;;;;;;;;;;4988715;28;20585;-85
2024/03/17 03:41:39;;;;;;;14.30;3.63;;;;;;;;;;4976893;28;20225;-87
2024/03/17 03:44:05;;;;;;;15.30;3.97;;;;;;;;;;4994559;28;20254;-87
2024/03/17 03:46:30;;;;;;;10.70;3.57;;;;;;;;;;5003650;28;20221;-86
2024/03/17 03:48:56;;;;;;;14.63;3.47;;;;;;;;;;4998142;28;20312;-84
2024/03/17 03:51:21;;;;;;;14.03;4.00;;;;;;;;;;5032448;28;20220;-85
2024/03/17 03:53:47;;;;;;;15.27;3.83;;;;;;;;;;4975028;28;20247;-86
2024/03/17 03:56:12;;;;;;;15.87;4.10;;;;;;;;;;4984332;28;20632;-86
2024/03/17 04:02:31;;;;;;;18.17;3.77;;;;;;;;;;5024163;28;20977;-85
2024/03/17 04:04:57;;;;;;;15.73;3.87;;;;;;;;;;4982942;28;20773;-83
2024/03/17 04:07:25;;;;;;;8.43;3.63;;;;;;;;;;5029395;28;20226;-85
2024/03/17 04:09:50;;;;;;;13.83;3.73;;;;;;;;;;4997811;28;20859;-86
2024/03/17 04:12:16;;;;;;;12.17;3.73;;;;;;;;;;4953141;28;21551;-86
2024/03/17 04:14:41;;;;;;;15.73;4.27;;;;;;;;;;4990757;28;20330;-86
2024/03/17 04:17:07;;;;;;;11.53;3.67;;;;;;;;;;4968644;28;20247;-84
2024/03/17 04:19:32;;;;;;;10.87;3.90;;;;;;;;;;4971915;28;20293;-87
2024/03/17 04:22:01;;;;;;;13.87;3.70;;;;;;;;;;4971797;28;20248;-86
2024/03/17 04:24:28;;;;;;;14.33;4.10;;;;;;;;;;4975653;28;20232;-85
2024/03/17 04:26:56;;;;;;;13.40;3.83;;;;;;;;;;4951600;28;20287;-87
2024/03/17 04:29:21;;;;;;;14.33;3.97;;;;;;;;;;4992799;28;20220;-85
2024/03/17 04:31:48;;;;;;;14.27;3.87;;;;;;;;;;4974195;28;20233;-85
2024/03/17 04:34:17;;;;;;;15.27;4.13;;;;;;;;;;4971142;28;20639;-84
2024/03/17 04:36:44;;;;;;;10.13;3.43;;;;;;;;;;4972789;28;20231;-87
2024/03/17 04:39:10;;;;;;;13.53;3.83;;;;;;;;;;4977476;28;20225;-85
2024/03/17 04:41:38;;;;;;;13.90;3.50;;;;;;;;;;4991564;28;20225;-87
2024/03/17 04:44:06;;;;;;;17.63;4.20;;;;;;;;;;4981524;28;20229;-85
2024/03/17 04:46:32;;;;;;;11.47;3.30;;;;;;;;;;4994100;28;20250;-86
2024/03/17 04:48:59;;;;;;;12.40;3.60;;;;;;;;;;4983586;28;20225;-87
2024/03/17 04:51:25;;;;;;;17.73;4.03;;;;;;;;;;4994873;28;20232;-85
2024/03/17 04:53:51;;;;;;;13.40;3.80;;;;;;;;;;5007483;28;20242;-85
2024/03/17 04:56:16;;;;;;;10.10;3.23;;;;;;;;;;5028046;28;20224;-87
2024/03/17 04:58:44;;;;;;;15.37;4.07;;;;;;;;;;4996445;28;20276;-86
2024/03/17 05:01:12;;;;;;;12.97;3.50;;;;;;;;;;5007912;28;20861;-86
2024/03/17 05:03:38;;;;;;;12.63;3.37;;;;;;;;;;5004016;28;20231;-86
2024/03/17 05:06:04;;;;;;;13.20;3.10;;;;;;;;;;4997291;28;20315;-86
2024/03/17 05:08:30;;;;;;;14.20;3.30;;;;;;;;;;5005271;28;20224;-86
2024/03/17 05:10:59;;;;;;;15.03;3.40;;;;;;;;;;4967719;28;20225;-86
2024/03/17 05:13:28;;;;;;;12.23;3.40;;;;;;;;;;4994549;28;20224;-86
2024/03/17 05:15:56;;;;;;;12.87;3.20;;;;;;;;;;4998667;28;20240;-85
2024/03/17 05:18:27;;;;;;;10.93;3.17;;;;;;;;;;5011683;28;20224;-85
2024/03/17 05:21:03;;;;;;;11.37;3.17;;;;;;;;;;5001044;28;21046;-86
2024/03/17 05:23:33;;;;;;;13.67;3.30;;;;;;;;;;5001945;28;20289;-86
2024/03/17 05:25:58;;;;;;;11.60;3.20;;;;;;;;;;4980421;28;20237;-85
2024/03/17 05:28:24;;;;;;;10.43;2.87;;;;;;;;;;4995740;28;20248;-85
2024/03/17 05:30:50;;;;;;;13.97;3.27;;;;;;;;;;4981648;28;20900;-84
2024/03/17 05:33:21;;;;;;;8.43;3.10;;;;;;;;;;5002726;28;20230;-87
2024/03/17 05:35:52;;;;;;;13.17;3.10;;;;;;;;;;4996961;28;20289;-87
2024/03/17 05:38:26;;;;;;;15.63;3.47;;;;;;;;;;5009107;28;20225;-84
2024/03/17 05:40:55;;;;;;;10.30;3.30;;;;;;;;;;4994485;28;20403;-88
2024/03/17 05:43:22;;;;;;;9.17;3.10;;;;;;;;;;4971390;28;20229;-88
2024/03/17 05:45:49;;;;;;;12.03;3.30;;;;;;;;;;5000345;28;20233;-84
2024/03/17 05:48:15;;;;;;;14.50;3.07;;;;;;;;;;4986423;28;20225;-83
2024/03/17 05:50:43;;;;;;;10.53;3.00;;;;;;;;;;5018318;28;20223;-84
2024/03/17 05:53:12;;;;;;;16.43;3.57;;;;;;;;;;4984914;28;20232;-85
2024/03/17 05:55:38;;;;;;;17.67;3.80;;;;;;;;;;4992529;28;20255;-84
2024/03/17 05:58:08;;;;;;;17.80;3.70;;;;;;;;;;4988961;28;20227;-84
2024/03/17 06:00:35;;;;;;;18.10;4.40;;;;;;;;;;5001849;28;20278;-85
2024/03/17 06:03:01;;;;;;;22.23;4.10;;;;;;;;;;4976210;28;20305;-88
2024/03/17 06:05:28;;;;;;;21.97;4.23;;;;;;;;;;4995082;28;20740;-86
2024/03/17 06:07:53;;;;;;;25.53;5.40;;;;;;;;;;4975635;28;21080;-87
2024/03/17 06:10:24;;;;;;;32.47;6.10;;;;;;;;;;4972033;28;20640;-87
2024/03/17 06:12:51;;;;;;;31.70;6.07;;;;;;;;;;4974152;28;20239;-84
2024/03/17 06:15:20;;;;;;;37.57;6.57;;;;;;;;;;5007099;28;20294;-87
2024/03/17 06:17:46;;;;;;;28.70;6.37;;;;;;;;;;4992608;28;20263;-87
2024/03/17 06:20:13;;;;;;;31.80;6.27;;;;;;;;;;5004276;28;20232;-87
2024/03/17 06:22:39;;;;;;;35.73;7.33;;;;;;;;;;4968280;28;20249;-88
2024/03/17 06:25:06;;;;;;;38.70;6.50;;;;;;;;;;4974694;28;20252;-87
2024/03/17 06:27:34;;;;;;;35.07;6.43;;;;;;;;;;5012363;28;20243;-87
2024/03/17 06:30:03;;;;;;;20.23;5.60;;;;;;;;;;4969298;28;20227;-87
2024/03/17 06:32:30;;;;;;;19.47;4.80;;;;;;;;;;4963912;28;20308;-87
2024/03/17 06:34:56;;;;;;;23.27;5.27;;;;;;;;;;4989987;28;20241;-87
2024/03/17 06:37:23;;;;;;;32.10;5.97;;;;;;;;;;4975495;28;20253;-88
2024/03/17 06:39:55;;;;;;;17.87;5.57;;;;;;;;;;4976344;28;20224;-89
2024/03/17 06:42:23;;;;;;;22.27;5.40;;;;;;;;;;4971805;28;20221;-86
2024/03/17 06:44:51;;;;;;;24.50;5.70;;;;;;;;;;4974208;28;20228;-87
2024/03/17 06:47:20;;;;;;;29.70;6.10;;;;;;;;;;4984584;28;20232;-85
2024/03/17 06:49:45;;;;;;;26.53;5.70;;;;;;;;;;4990994;28;20237;-85
2024/03/17 06:52:11;;;;;;;34.73;7.17;;;;;;;;;;4988353;28;20243;-88
2024/03/17 06:54:36;;;;;;;23.57;5.87;;;;;;;;;;4985790;28;20247;-85
2024/03/17 06:57:04;;;;;;;37.47;6.27;;;;;;;;;;4961710;28;20223;-85
2024/03/17 06:59:33;;;;;;;31.50;5.83;;;;;;;;;;4958806;28;20240;-84
2024/03/17 07:01:58;;;;;;;32.63;6.30;;;;;;;;;;4971559;28;20249;-85
2024/03/17 07:04:24;;;;;;;33.13;6.80;;;;;;;;;;4974926;28;20244;-85
2024/03/17 07:06:50;;;;;;;29.87;5.73;;;;;;;;;;4974914;28;20226;-86
2024/03/17 07:09:17;;;;;;;18.93;5.83;;;;;;;;;;4970348;28;20304;-86
2024/03/17 07:11:45;;;;;;;22.27;5.83;;;;;;;;;;4969429;28;20248;-88
2024/03/17 07:14:10;;;;;;;21.20;5.10;;;;;;;;;;5001295;28;20324;-85
2024/03/17 07:16:40;;;;;;;18.57;5.10;;;;;;;;;;4978429;28;20225;-85
2024/03/17 07:19:09;;;;;;;13.87;5.10;;;;;;;;;;4983320;28;20327;-86
2024/03/17 07:21:34;;;;;;;18.77;6.67;;;;;;;;;;4990621;28;20224;-87
2024/03/17 07:24:04;;;;;;;16.03;4.80;;;;;;;;;;4989221;28;20228;-87
2024/03/17 07:26:30;;;;;;;19.50;4.80;;;;;;;;;;5001701;28;20223;-87
2024/03/17 07:28:56;;;;;;;11.37;4.93;;;;;;;;;;5003236;28;20217;-85
2024/03/17 07:31:25;;;;;;;9.67;4.70;;;;;;;;;;4985282;28;20228;-87
2024/03/17 07:33:56;;;;;;;6.27;4.40;;;;;;;;;;4985132;28;20611;-86
2024/03/17 07:36:26;;;;;;;6.80;4.07;;;;;;;;;;4967993;28;20301;-85
2024/03/17 07:38:54;;;;;;;6.07;3.73;;;;;;;;;;5003409;28;20229;-86
2024/03/17 07:41:26;;;;;;;6.90;4.67;;;;;;;;;;5008739;28;20205;-86
2024/03/17 07:43:54;;;;;;;8.13;4.50;;;;;;;;;;4988985;28;20709;-87
2024/03/17 07:46:22;;;;;;;7.77;4.53;;;;;;;;;;4997429;28;20260;-88
2024/03/17 07:48:52;;;;;;;8.20;4.03;;;;;;;;;;4991593;28;21035;-85
2024/03/17 07:51:23;;;;;;;8.40;4.30;;;;;;;;;;5004716;28;20220;-87
2024/03/17 07:53:51;;;;;;;6.90;4.30;;;;;;;;;;4989387;28;20229;-86
2024/03/17 07:56:17;;;;;;;8.93;4.40;;;;;;;;;;4994174;28;20236;-86
2024/03/17 07:58:43;;;;;;;7.97;4.67;;;;;;;;;;5001876;28;20214;-87
2024/03/17 08:01:11;;;;;;;8.53;4.13;;;;;;;;;;4988611;28;20232;-85
2024/03/17 08:03:37;;;;;;;6.60;4.10;;;;;;;;;;5004969;28;20240;-85
2024/03/17 08:06:04;;;;;;;8.93;4.20;;;;;;;;;;4993829;28;20228;-86
2024/03/17 08:08:30;;;;;;;9.73;4.47;;;;;;;;;;4989652;28;20232;-87
2024/03/17 08:10:56;;;;;;;6.50;4.50;;;;;;;;;;5003894;28;20714;-86
2024/03/17 08:13:33;;;;;;;9.83;6.73;;;;;;;;;;4989768;28;20226;-87
2024/03/17 08:16:00;;;;;;;12.83;5.87;;;;;;;;;;4995231;28;20641;-83
2024/03/17 08:18:26;;;;;;;16.20;6.10;;;;;;;;;;5001292;28;20235;-87
2024/03/17 08:20:56;;;;;;;17.77;7.17;;;;;;;;;;4969895;28;20271;-87
2024/03/17 08:23:23;;;;;;;13.60;5.20;;;;;;;;;;4976461;28;20220;-87
2024/03/17 08:25:58;;;;;;;13.47;5.90;;;;;;;;;;4978213;28;20229;-87
2024/03/17 08:28:27;;;;;;;11.43;5.20;;;;;;;;;;4990001;28;20286;-87
2024/03/17 08:30:59;;;;;;;12.83;5.40;;;;;;;;;;5009943;28;20690;-88
2024/03/17 08:33:25;;;;;;;13.70;5.33;;;;;;;;;;4995664;28;20592;-87
2024/03/17 08:35:55;;;;;;;14.07;5.20;;;;;;;;;;4996009;28;20227;-87
2024/03/17 08:38:24;;;;;;;12.57;4.70;;;;;;;;;;5001306;28;20694;-86
2024/03/17 08:40:51;;;;;;;9.73;4.53;;;;;;;;;;4974811;28;21213;-86
2024/03/17 08:43:16;;;;;;;13.77;4.60;;;;;;;;;;4985124;28;20226;-86
2024/03/17 08:45:43;;;;;;;12.53;4.10;;;;;;;;;;4982605;28;20315;-88
2024/03/17 08:48:10;;;;;;;12.27;3.87;;;;;;;;;;4987274;28;20275;-86
2024/03/17 08:50:36;;;;;;;17.43;4.30;;;;;;;;;;4988914;28;20751;-86
2024/03/17 08:53:02;;;;;;;12.53;3.00;;;;;;;;;;4973905;28;20228;-87
2024/03/17 08:55:29;;;;;;;11.50;3.43;;;;;;;;;;4976897;28;20229;-87
2024/03/17 08:57:57;;;;;;;12.73;3.20;;;;;;;;;;4996707;28;20216;-88
2024/03/17 09:00:25;;;;;;;11.47;2.83;;;;;;;;;;5010169;28;20291;-86
2024/03/17 09:02:52;;;;;;;9.70;2.37;;;;;;;;;;4953642;28;20226;-85
2024/03/17 09:05:17;;;;;;;8.20;2.03;;;;;;;;;;5000289;28;20235;-86
2024/03/17 09:07:45;;;;;;;12.67;2.27;;;;;;;;;;5021173;28;20225;-87
2024/03/17 09:10:13;;;;;;;9.47;2.10;;;;;;;;;;4992149;28;20243;-87
2024/03/17 09:12:47;;;;;;;11.33;2.10;;;;;;;;;;5013894;28;20217;-86
2024/03/17 09:15:15;;;;;;;5.63;1.47;;;;;;;;;;5016847;28;20271;-85
2024/03/17 09:17:44;;;;;;;7.60;2.00;;;;;;;;;;5020748;28;20697;-86
2024/03/17 09:20:11;;;;;;;7.17;1.70;;;;;;;;;;4980854;28;20225;-87
2024/03/17 09:22:39;;;;;;;8.63;2.20;;;;;;;;;;4994557;28;20224;-86
2024/03/17 09:25:12;;;;;;;10.10;2.50;;;;;;;;;;4993310;28;20600;-87
2024/03/17 09:27:37;;;;;;;9.00;1.70;;;;;;;;;;4979930;28;20924;-86
2024/03/17 09:30:06;;;;;;;9.60;1.73;;;;;;;;;;4975200;28;20260;-85
2024/03/17 09:32:34;;;;;;;8.43;1.90;;;;;;;;;;4992688;28;20224;-87
2024/03/17 09:34:59;;;;;;;10.93;2.17;;;;;;;;;;4986931;28;20596;-86
2024/03/17 09:37:25;;;;;;;8.57;2.17;;;;;;;;;;5009842;28;20213;-86
2024/03/17 09:39:51;;;;;;;9.20;2.20;;;;;;;;;;4993813;28;20252;-87
2024/03/17 09:42:19;;;;;;;8.20;1.80;;;;;;;;;;4970107;28;20244;-88
2024/03/17 09:44:50;;;;;;;8.97;2.23;;;;;;;;;;4998867;28;20220;-87
2024/03/17 09:47:21;;;;;;;7.20;1.90;;;;;;;;;;4978077;28;20227;-86
2024/03/17 09:49:52;;;;;;;9.73;1.90;;;;;;;;;;4971258;28;20847;-88
2024/03/17 09:52:19;;;;;;;8.90;1.67;;;;;;;;;;4989162;28;20221;-86
2024/03/17 09:54:47;;;;;;;9.80;1.60;;;;;;;;;;5011217;28;20299;-87
2024/03/17 09:57:17;;;;;;;8.70;1.93;;;;;;;;;;4976670;28;20705;-87
2024/03/17 09:59:50;;;;;;;9.60;2.00;;;;;;;;;;4978484;28;20212;-85
2024/03/17 10:02:19;;;;;;;10.33;1.90;;;;;;;;;;4989772;28;20221;-86
2024/03/17 10:04:44;;;;;;;6.57;1.50;;;;;;;;;;4956927;28;20224;-86
2024/03/17 10:07:10;;;;;;;8.63;1.77;;;;;;;;;;4966679;28;20256;-87
2024/03/17 10:09:36;;;;;;;10.13;1.90;;;;;;;;;;4975078;28;20228;-86
2024/03/17 10:12:02;;;;;;;10.33;1.77;;;;;;;;;;5007173;28;20220;-87
2024/03/17 10:14:27;;;;;;;9.00;1.90;;;;;;;;;;4971949;28;20409;-88
2024/03/17 10:16:53;;;;;;;7.13;1.67;;;;;;;;;;4983891;28;20741;-87
2024/03/17 10:19:29;;;;;;;8.10;1.80;;;;;;;;;;4984301;28;20694;-85
2024/03/17 10:22:00;;;;;;;9.20;1.63;;;;;;;;;;4974580;28;20758;-86
2024/03/17 10:24:28;;;;;;;7.17;1.53;;;;;;;;;;5003112;28;20229;-84
2024/03/17 10:26:55;;;;;;;7.50;1.70;;;;;;;;;;4989729;28;20228;-86
2024/03/17 10:29:35;;;;;;;8.77;2.00;;;;;;;;;;5003958;28;20236;-79
2024/03/17 10:32:14;;;;;;;9.87;2.23;;;;;;;;;;5005455;28;20344;-79
2024/03/17 10:34:40;;;;;;;7.87;1.80;;;;;;;;;;5007876;28;20220;-77
2024/03/17 10:37:24;;;;;;;7.73;1.90;;;;;;;;;;4987175;28;20224;-79
2024/03/17 10:39:51;;;;;;;10.67;1.80;;;;;;;;;;5006332;28;20233;-78
2024/03/17 10:42:31;;;;;;;7.60;1.63;;;;;;;;;;5006934;28;20581;-77
2024/03/17 10:44:56;;;;;;;7.77;1.40;;;;;;;;;;4990923;28;20245;-78
2024/03/17 10:47:26;;;;;;;8.53;1.93;;;;;;;;;;4987451;28;20244;-80
2024/03/17 10:49:53;;;;;;;8.87;1.90;;;;;;;;;;4991710;28;20240;-77
2024/03/17 10:52:19;;;;;;;7.83;1.83;;;;;;;;;;4975171;28;20229;-79
2024/03/17 10:54:49;;;;;;;6.47;1.67;;;;;;;;;;4987130;28;20240;-78
2024/03/17 10:57:36;;;;;;;4.87;1.60;;;;;;;;;;4992258;28;20300;-79
2024/03/17 11:00:04;;;;;;;8.13;1.80;;;;;;;;;;4984004;28;20228;-77
2024/03/17 11:02:33;;;;;;;6.83;1.80;;;;;;;;;;4995236;28;20488;-77
2024/03/17 11:05:00;;;;;;;8.33;1.23;;;;;;;;;;4967062;28;20233;-80
2024/03/17 11:07:26;;;;;;;5.50;1.90;;;;;;;;;;4992278;28;20580;-77
2024/03/17 11:09:57;;;;;;;8.40;1.60;;;;;;;;;;4970604;28;20236;-79
2024/03/17 11:12:45;;;;;;;5.33;1.30;;;;;;;;;;4989192;28;20232;-76
2024/03/17 11:15:19;;;;;;;7.47;1.57;;;;;;;;;;4988824;28;20234;-78
2024/03/17 11:17:46;;;;;;;5.27;1.27;;;;;;;;;;5009856;28;20288;-78
2024/03/17 11:20:28;;;;;;;8.07;1.70;;;;;;;;;;5006840;28;20259;-78
2024/03/17 11:22:56;;;;;;;8.20;1.63;;;;;;;;;;5006051;28;20290;-78
2024/03/17 11:25:30;;;;;;;7.87;1.53;;;;;;;;;;4978431;28;20239;-77
2024/03/17 11:27:56;;;;;;;5.97;1.50;;;;;;;;;;4984495;28;20229;-79
2024/03/17 11:30:40;;;;;;;7.73;1.40;;;;;;;;;;5009363;28;20255;-79
2024/03/17 11:33:35;;;;;;;7.77;1.50;;;;;;;;;;5013732;28;20761;-78
2024/03/17 11:36:25;;;;;;;7.23;1.53;;;;;;;;;;5021138;28;20224;-78
2024/03/17 11:39:06;;;;;;;8.77;1.80;;;;;;;;;;5030438;28;20220;-79
2024/03/17 11:41:41;;;;;;;6.53;1.83;;;;;;;;;;5007015;28;20228;-79
2024/03/17 11:44:15;;;;;;;5.00;1.40;;;;;;;;;;5003313;28;20256;-79
2024/03/17 11:46:44;;;;;;;5.23;1.47;;;;;;;;;;5014110;28;20222;-81
2024/03/17 11:49:19;;;;;;;5.40;1.30;;;;;;;;;;5025255;28;20226;-79
2024/03/17 11:51:45;;;;;;;7.67;1.83;;;;;;;;;;5012650;28;20234;-79
2024/03/17 11:54:18;;;;;;;6.57;1.70;;;;;;;;;;4989774;28;20238;-79
2024/03/17 11:56:45;;;;;;;6.10;1.43;;;;;;;;;;5017671;28;20224;-79
2024/03/17 11:59:13;;;;;;;6.40;1.60;;;;;;;;;;5002257;28;20701;-80
2024/03/17 12:01:41;;;;;;;6.40;1.57;;;;;;;;;;5020660;28;20228;-79
2024/03/17 12:04:07;;;;;;;5.33;1.30;;;;;;;;;;4987757;28;20309;-79
2024/03/17 12:06:33;;;;;;;7.93;1.30;;;;;;;;;;4988379;28;20224;-79
2024/03/17 12:09:21;;;;;;;6.73;1.60;;;;;;;;;;4983186;28;20441;-80
2024/03/17 12:11:49;;;;;;;6.87;1.63;;;;;;;;;;5013426;28;20225;-79
2024/03/17 12:14:21;;;;;;;8.27;1.60;;;;;;;;;;5004873;28;20224;-79
2024/03/17 12:16:54;;;;;;;5.90;1.57;;;;;;;;;;5003058;28;20216;-77
2024/03/17 12:19:19;;;;;;;7.20;1.33;;;;;;;;;;4991544;28;20223;-79
2024/03/17 12:21:46;;;;;;;6.77;1.77;;;;;;;;;;4971864;28;20225;-79
2024/03/17 12:24:16;;;;;;;5.23;1.53;;;;;;;;;;4986271;28;20221;-79
2024/03/17 12:26:45;;;;;;;9.37;1.50;;;;;;;;;;4990976;28;20236;-79
2024/03/17 12:29:27;;;;;;;6.30;1.33;;;;;;;;;;4986852;28;20257;-79
2024/03/17 12:31:55;;;;;;;6.40;1.50;;;;;;;;;;4999774;28;20661;-79
2024/03/17 12:34:26;;;;;;;4.90;1.27;;;;;;;;;;4983391;28;20232;-79
2024/03/17 12:36:54;;;;;;;7.60;1.33;;;;;;;;;;5003758;28;20251;-78
2024/03/17 12:39:27;;;;;;;6.60;1.70;;;;;;;;;;4976663;28;20217;-79
2024/03/17 12:42:03;;;;;;;7.27;1.40;;;;;;;;;;4999384;28;20288;-79
2024/03/17 12:44:31;;;;;;;6.90;2.00;;;;;;;;;;4985483;28;20228;-80
2024/03/17 12:47:04;;;;;;;5.57;1.60;;;;;;;;;;4981256;28;20222;-79
2024/03/17 12:49:32;;;;;;;4.63;1.30;;;;;;;;;;4990212;28;20303;-79
2024/03/17 12:51:59;;;;;;;7.27;1.43;;;;;;;;;;5008709;28;20688;-79
2024/03/17 12:54:27;;;;;;;5.27;1.40;;;;;;;;;;5011819;28;20254;-79
2024/03/17 13:02:43;;;;;;;5.07;1.43;;;;;;;;;;5008027;28;20225;-77
2024/03/17 13:05:20;;;;;;;7.47;1.47;;;;;;;;;;4996036;28;20225;-79
2024/03/17 13:07:46;;;;;;;5.77;1.30;;;;;;;;;;4988354;28;20267;-79
2024/03/17 13:10:50;;;;;;;5.27;1.27;;;;;;;;;;4991080;28;21006;-88
2024/03/17 13:13:36;;;;;;;4.10;1.13;;;;;;;;;;4937141;29;20220;-90
2024/03/17 13:16:02;;;;;;;5.20;1.10;;;;;;;;;;4996994;28;20222;-90
2024/03/17 13:18:28;;;;;;;3.73;1.17;;;;;;;;;;4995028;28;20248;-88
2024/03/17 13:20:54;;;;;;;3.83;1.20;;;;;;;;;;4980812;28;20242;-89
2024/03/17 13:23:26;;;;;;;6.73;1.33;;;;;;;;;;4998719;28;20252;-89
2024/03/17 13:25:54;;;;;;;5.40;1.30;;;;;;;;;;4980051;28;20244;-89
2024/03/17 13:28:19;;;;;;;5.43;1.50;;;;;;;;;;4996204;28;20305;-80
2024/03/17 13:30:47;;;;;;;5.40;1.30;;;;;;;;;;5000541;28;20221;-78
2024/03/17 13:33:13;;;;;;;2.40;1.20;;;;;;;;;;4995416;28;20307;-79
2024/03/17 13:35:39;;;;;;;4.70;1.27;;;;;;;;;;5009790;28;20604;-79
2024/03/17 13:38:10;;;;;;;5.10;1.37;;;;;;;;;;5011254;28;20296;-76
2024/03/17 13:40:37;;;;;;;4.27;1.20;;;;;;;;;;4992404;28;21060;-77
2024/03/17 13:43:03;;;;;;;5.03;1.60;;;;;;;;;;4980782;28;20209;-80
2024/03/17 13:45:42;;;;;;;3.45;1.33;;;;;;;;;;4996267;28;21033;-79
2024/03/17 13:48:11;;;;;;;7.13;1.20;;;;;;;;;;4991958;28;20593;-79
2024/03/17 13:50:38;;;;;;;4.97;1.10;;;;;;;;;;4990153;28;20328;-78
2024/03/17 13:53:04;;;;;;;5.20;1.10;;;;;;;;;;4988417;28;20252;-79
2024/03/17 13:55:33;;;;;;;3.43;1.20;;;;;;;;;;5009678;28;20224;-80
2024/03/17 13:58:01;;;;;;;4.23;1.20;;;;;;;;;;5007436;28;20232;-78
2024/03/17 14:00:31;;;;;;;6.20;1.40;;;;;;;;;;4968662;28;20236;-79
2024/03/17 14:02:59;;;;;;;3.90;1.07;;;;;;;;;;5005507;28;20235;-80
2024/03/17 14:05:25;;;;;;;4.30;1.30;;;;;;;;;;5003748;28;20240;-80
2024/03/17 14:07:54;;;;;;;6.90;1.30;;;;;;;;;;4975181;28;20259;-80
2024/03/17 14:10:26;;;;;;;3.83;1.20;;;;;;;;;;4979373;28;20276;-78
2024/03/17 14:12:54;;;;;;;4.57;1.10;;;;;;;;;;4994180;28;20236;-80
2024/03/17 14:15:22;;;;;;;5.27;1.30;;;;;;;;;;4959459;28;20218;-79
2024/03/17 14:17:50;;;;;;;5.77;1.50;;;;;;;;;;4993904;28;20785;-80
2024/03/17 14:20:19;;;;;;;4.57;1.43;;;;;;;;;;4988272;28;20309;-79
2024/03/17 14:22:53;;;;;;;4.27;1.10;;;;;;;;;;4987942;28;20224;-78
2024/03/17 14:25:18;;;;;;;7.57;1.50;;;;;;;;;;4980273;28;20340;-80
2024/03/17 14:27:45;;;;;;;5.70;1.30;;;;;;;;;;4986682;28;20216;-79
2024/03/17 14:30:24;;;;;;;6.10;1.30;;;;;;;;;;4987250;28;20287;-79
2024/03/17 14:32:51;;;;;;;4.27;1.10;;;;;;;;;;4991027;28;20220;-80
2024/03/17 14:35:17;;;;;;;5.23;1.00;;;;;;;;;;4986504;28;20224;-79
2024/03/17 14:37:48;;;;;;;3.00;1.10;;;;;;;;;;4984127;28;20221;-79
2024/03/17 14:40:21;;;;;;;3.23;1.10;;;;;;;;;;4971169;28;20244;-80
2024/03/17 14:42:49;;;;;;;5.78;1.23;;;;;;;;;;5002637;28;20937;-80
2024/03/17 14:45:15;;;;;;;3.63;1.30;;;;;;;;;;4970780;28;20225;-80
2024/03/17 14:47:44;;;;;;;4.70;1.00;;;;;;;;;;4967600;28;20308;-80
2024/03/17 14:50:13;;;;;;;4.90;1.10;;;;;;;;;;5000186;28;20227;-80
2024/03/17 14:52:40;;;;;;;6.37;1.23;;;;;;;;;;5004318;28;21191;-79
2024/03/17 14:55:07;;;;;;;5.53;1.03;;;;;;;;;;4955632;28;20214;-81